Página principal
METAR-TAF:

METAR-TAF

Aeroportos :

Aeroporto Internacional Margaret Ekpo

Calabar, Nigéria

latitude: 04-58N, longitude: 008-21E, altura: 63 m

Observação actual do tempo

O boletim foi feito há 1 hora e 7 minutos, às 10:00 UTC
Vento 5 kt de oes-sudoeste
Temperatura 31°C
Humidade 75%
Pressão 1013 hPa
Visibilidade: 7000 m
Nuvens fragmentadasa uma altura de 1100 ft

METAR: DNCA 211000Z 25005KT 7000 BKN011 31/26 Q1013

Hora: 12:07 (11:07 UTC)


TAF: em falta

Observações e previsões do tempo de mais de 4000 aeroportos (mensagens METAR e TAF).

As estações disponíveis são os pontos amarelos e vermelhos sobre o mapa.

Mova o rato sobre o mapa para ver o nome da estação.

Depois clique no ponto para visualizar as observações e previsões meteorológicas.

Para alterar o mapa : clique nos botões verdes com uma cruz preta para aumentar o zoom; no botão verde com uma pitada de zoom; ou nas setas verdes para mapas adjacentes.


METAR-TAF: